Home > Products > Valid Products > TAF

000
FTUS42 KMLB 032057 AAA
TAFMCO
TAF AMD
KMCO 032057Z 0321/0418 11010KT P6SM SCT035 BKN050
     FM040000 11006KT P6SM FEW035 SCT250
     FM040900 16003KT 3SM BR SCT006 BKN010
      TEMPO 0409/0412 2SM BR BKN006
     FM041500 16010KT P6SM SCT010 BKN030=



000
FTUS42 KMLB 031740
TAFMLB
TAF
KMLB 031740Z 0318/0418 11011KT P6SM FEW035
     FM040000 12006KT P6SM FEW030 SCT250
     FM040900 14004KT P6SM SCT008
      TEMPO 0409/0412 5SM BR BKN015=



000
FTUS42 KMLB 031740
TAFVRB
TAF
KVRB 031740Z 0318/0418 11011KT P6SM FEW035
     FM040000 13007KT P6SM FEW025 SCT250
     FM040900 14004KT P6SM SCT010
      TEMPO 0409/0412 5SM BR BKN015=



000
FTUS42 KMLB 031740
TAFSFB
TAF
KSFB 031740Z 0318/0418 12010KT P6SM SCT035 BKN050
     FM040000 11006KT P6SM FEW035 SCT250
     FM040900 16003KT 3SM BR SCT006 BKN010
      TEMPO 0409/0412 2SM BR BKN006
     FM041500 16010KT P6SM SCT010 BKN030=



000
FTUS42 KMLB 031740
TAFMCO
TAF
KMCO 031740Z 0318/0418 11010KT P6SM SCT035 BKN050
     FM040000 11006KT P6SM FEW035 SCT250
     FM040900 16003KT 3SM BR SCT006 BKN010
      TEMPO 0409/0412 2SM BR BKN006
     FM041500 16010KT P6SM SCT010 BKN030=



000
FTUS42 KMLB 031740
TAFDAB
TAF
KDAB 031740Z 0318/0418 09008KT P6SM SCT015
     FM040000 13003KT P6SM FEW025 SCT250
     FM040900 18003KT 3SM BR SCT006 BKN010
      TEMPO 0409/0412 2SM BR BKN006
     FM041500 16010KT P6SM SCT010 BKN030=



000
FTUS42 KMLB 031740
TAFVRB
TAF
KVRB 031740Z 0318/0418 11011KT P6SM FEW035
     FM040000 13007KT P6SM FEW025 SCT250
     FM040900 14004KT P6SM SCT010
      TEMPO 0409/0412 5SM BR BKN015=



000
FTUS42 KMLB 031740
TAFMLB
TAF
KMLB 031740Z 0318/0418 11011KT P6SM FEW035
     FM040000 12006KT P6SM FEW030 SCT250
     FM040900 14004KT P6SM SCT008
      TEMPO 0409/0412 5SM BR BKN015=



000
FTUS42 KMLB 031740
TAFDAB
TAF
KDAB 031740Z 0318/0418 09008KT P6SM SCT015
     FM040000 13003KT P6SM FEW025 SCT250
     FM040900 18003KT 3SM BR SCT006 BKN010
      TEMPO 0409/0412 2SM BR BKN006
     FM041500 16010KT P6SM SCT010 BKN030=



000
FTUS42 KMLB 031740
TAFSFB
TAF
KSFB 031740Z 0318/0418 12010KT P6SM SCT035 BKN050
     FM040000 11006KT P6SM FEW035 SCT250
     FM040900 16003KT 3SM BR SCT006 BKN010
      TEMPO 0409/0412 2SM BR BKN006
     FM041500 16010KT P6SM SCT010 BKN030=



000
FTUS42 KMLB 031740
TAFMCO
TAF
KMCO 031740Z 0318/0418 11010KT P6SM SCT035 BKN050
     FM040000 11006KT P6SM FEW035 SCT250
     FM040900 16003KT 3SM BR SCT006 BKN010
      TEMPO 0409/0412 2SM BR BKN006
     FM041500 16010KT P6SM SCT010 BKN030=



000
FTUS42 KMLB 031533 AAB
TAFMCO
TAF AMD
KMCO 031533Z 0316/0412 07006KT P6SM SCT006 SCT020
     FM031600 11010KT P6SM SCT035
     FM040000 11006KT P6SM FEW035 SCT250
     FM040900 16003KT 3SM BR SCT006
      TEMPO 0409/0412 2SM BR BKN006=



000
FTUS42 KMLB 031533 AAB
TAFMCO
TAF AMD
KMCO 031533Z 0316/0412 07006KT P6SM SCT006 SCT020
     FM031600 11010KT P6SM SCT035
     FM040000 11006KT P6SM FEW035 SCT250
     FM040900 16003KT 3SM BR SCT006
      TEMPO 0409/0412 2SM BR BKN006=



000
FTUS42 KMLB 031503 AAA
TAFMCO
TAF AMD
KMCO 031503Z 0315/0412 05004KT 5SM BR SCT003 BKN020
      TEMPO 0315/0316 BKN003
     FM031600 11010KT P6SM SCT035
     FM040000 11006KT P6SM FEW035 SCT250
     FM040900 16003KT 3SM BR SCT006
      TEMPO 0409/0412 2SM BR BKN006=



000
FTUS42 KMLB 031503 AAA
TAFMCO
TAF AMD
KMCO 031503Z 0315/0412 05004KT 5SM BR SCT003 BKN020
      TEMPO 0315/0316 BKN003
     FM031600 11010KT P6SM SCT035
     FM040000 11006KT P6SM FEW035 SCT250
     FM040900 16003KT 3SM BR SCT006
      TEMPO 0409/0412 2SM BR BKN006=



000
FTUS42 KMLB 031425 AAA
TAFDAB
TAF AMD
KDAB 031425Z 0314/0412 05004KT P6SM SCT005 SCT012
     FM031600 09007KT P6SM SCT020
     FM031700 09008KT P6SM SCT030
     FM040000 13003KT P6SM FEW025 SCT250
     FM040900 18003KT 2SM BR SCT006
      TEMPO 0409/0412 1SM BR BKN006=



000
FTUS42 KMLB 031315 AAB
TAFMLB
TAF AMD
KMLB 031315Z 0313/0412 08007KT P6SM SCT005 SCT020
     FM031700 11011KT P6SM SCT030
     FM040000 12006KT P6SM FEW030 SCT250
     FM040900 14004KT P6SM SCT008
      TEMPO 0409/0412 5SM BR BKN008=



000
FTUS42 KMLB 031315 AAA
TAFVRB
TAF AMD
KVRB 031315Z 0313/0412 08007KT P6SM SCT020
     FM031700 10010KT P6SM SCT030
     FM040000 13007KT P6SM FEW025 SCT250
     FM040900 14004KT P6SM SCT010
      TEMPO 0409/0412 5SM BR BKN010=



000
FTUS42 KMLB 031311 AAA
TAFSFB
TAF AMD
KSFB 031311Z 0313/0412 00000KT 6SM BR SCT007 BKN025
     FM031500 11010KT P6SM SCT035
     FM040000 11006KT P6SM FEW035 SCT250
     FM040900 18003KT 3SM BR BKN006
      TEMPO 0409/0412 1SM BR BKN004=



000
FTUS42 KMLB 031120
TAFSFB
TAF
KSFB 031120Z 0312/0412 00000KT 1SM BR BKN003
      TEMPO 0312/0313 1/4SM FG VV002
     FM031400 05004KT 5SM BR SCT005 BKN020
     FM031600 11010KT P6SM SCT035
     FM040000 11006KT P6SM FEW035 SCT250
     FM040900 18003KT 3SM BR BKN006
      TEMPO 0409/0412 1SM BR BKN004=



000
FTUS42 KMLB 031120
TAFMLB
TAF
KMLB 031120Z 0312/0412 06005KT 3SM BR BKN003
      TEMPO 0312/0314 1/2SM FG BKN002
     FM031500 08008KT P6SM SCT005 SCT020
     FM031700 11011KT P6SM SCT030
     FM040000 12006KT P6SM FEW030 SCT250
     FM040900 14004KT P6SM SCT008
      TEMPO 0409/0412 5SM BR BKN008=



000
FTUS42 KMLB 031120
TAFMCO
TAF
KMCO 031120Z 0312/0412 00000KT 1SM BR BKN003
      TEMPO 0312/0313 1/2SM FG VV002
     FM031400 05004KT 5SM BR SCT005 BKN020
     FM031600 11010KT P6SM SCT035
     FM040000 11006KT P6SM FEW035 SCT250
     FM040900 16003KT 3SM BR SCT006
      TEMPO 0409/0412 2SM BR BKN006=



000
FTUS42 KMLB 031120
TAFDAB
TAF
KDAB 031120Z 0312/0412 00000KT 1/2SM FG OVC005
      TEMPO 0312/0313 1/4SM FG OVC002
     FM031500 05004KT P6SM SCT005 BKN012
     FM031600 09007KT P6SM SCT020
     FM031700 09008KT P6SM SCT030
     FM040000 13003KT P6SM FEW025 SCT250
     FM040900 18003KT 2SM BR SCT006
      TEMPO 0409/0412 1SM BR BKN006=



000
FTUS42 KMLB 031120
TAFVRB
TAF
KVRB 031120Z 0312/0412 05003KT 2SM BR BKN003
      TEMPO 0312/0313 1/2SM FG VV002
     FM031400 08008KT P6SM SCT005 SCT020
     FM031700 10010KT P6SM SCT030
     FM040000 13007KT P6SM FEW025 SCT250
     FM040900 14004KT P6SM SCT010
      TEMPO 0409/0412 5SM BR BKN010=



000
FTUS42 KMLB 030905 AAA
TAFMCO
TAF AMD
KMCO 030905Z 0309/0406 00000KT 3SM BR SCT003
      TEMPO 0309/0310 1SM BR BKN003
     FM031000 00000KT 1SM BR BKN003
      TEMPO 0310/0313 1/2SM FG VV002
     FM031400 05004KT 5SM BR SCT005 BKN020
     FM031600 11010KT P6SM SCT035
     FM040000 11006KT P6SM FEW035 SCT250=



000
FTUS42 KMLB 030905 AAA
TAFMCO
TAF AMD
KMCO 030905Z 0309/0406 00000KT 3SM BR SCT003
      TEMPO 0309/0310 1SM BR BKN003
     FM031000 00000KT 1SM BR BKN003
      TEMPO 0310/0313 1/2SM FG VV002
     FM031400 05004KT 5SM BR SCT005 BKN020
     FM031600 11010KT P6SM SCT035
     FM040000 11006KT P6SM FEW035 SCT250=



000
FTUS42 KMLB 030529
TAFVRB
TAF
KVRB 030529Z 0306/0406 05003KT 3SM BR SCT004
      TEMPO 0306/0310 1/2SM FG VV004
     FM031000 05003KT 2SM BR BKN003
      TEMPO 0310/0313 1/2SM FG VV002
     FM031400 08008KT P6SM SCT005 SCT020
     FM031700 10010KT P6SM SCT030
     FM040000 13007KT P6SM FEW025 SCT250=



000
FTUS42 KMLB 030529
TAFVRB
TAF
KVRB 030529Z 0306/0406 05003KT 3SM BR SCT004
      TEMPO 0306/0310 1/2SM FG VV004
     FM031000 05003KT 2SM BR BKN003
      TEMPO 0310/0313 1/2SM FG VV002
     FM031400 08008KT P6SM SCT005 SCT020
     FM031700 10010KT P6SM SCT030
     FM040000 13007KT P6SM FEW025 SCT250=



000
FTUS42 KMLB 030529
TAFSFB
TAF
KSFB 030529Z 0306/0406 00000KT 6SM BR SCT003
      TEMPO 0308/0310 1/2SM FG BKN002
     FM031000 00000KT 1SM BR BKN003
      TEMPO 0310/0313 1/2SM FG VV002
     FM031400 05004KT 5SM BR SCT005 BKN020
     FM031600 11010KT P6SM SCT035
     FM040000 11006KT P6SM FEW035 SCT250=



000
FTUS42 KMLB 030529
TAFMLB
TAF
KMLB 030529Z 0306/0406 VRB03KT 6SM BR FEW003
     FM030800 06004KT 4SM BR SCT003
      TEMPO 0308/0310 2SM BR BKN002
     FM031000 06005KT 3SM BR BKN003
      TEMPO 0310/0314 1SM BR VV002
     FM031500 08008KT P6SM SCT005 SCT020
     FM031700 11011KT P6SM SCT030
     FM040000 12006KT P6SM FEW030 SCT250=



000
FTUS42 KMLB 030529
TAFDAB
TAF
KDAB 030529Z 0306/0406 08003KT 3/4SM BR BKN003
      TEMPO 0306/0308 1/4SM FG OVC002
     FM030800 00000KT 1/2SM FG OVC002
      TEMPO 0308/0312 1/4SM FG VV002
     FM031500 05004KT P6SM SCT005 BKN012
     FM031600 09007KT P6SM SCT020
     FM031700 09008KT P6SM SCT030
     FM040000 13003KT P6SM FEW025 SCT250=



000
FTUS42 KMLB 030529
TAFMCO
TAF
KMCO 030529Z 0306/0406 00000KT 6SM BR SCT003
      TEMPO 0308/0310 1/2SM FG BKN002
     FM031000 00000KT 1SM BR BKN003
      TEMPO 0310/0313 1/2SM FG VV002
     FM031400 05004KT 5SM BR SCT005 BKN020
     FM031600 11010KT P6SM SCT035
     FM040000 11006KT P6SM FEW035 SCT250=



000
FTUS42 KMLB 030529
TAFSFB
TAF
KSFB 030529Z 0306/0406 00000KT 6SM BR SCT003
      TEMPO 0308/0310 1/2SM FG BKN002
     FM031000 00000KT 1SM BR BKN003
      TEMPO 0310/0313 1/2SM FG VV002
     FM031400 05004KT 5SM BR SCT005 BKN020
     FM031600 11010KT P6SM SCT035
     FM040000 11006KT P6SM FEW035 SCT250=



000
FTUS42 KMLB 030529
TAFMLB
TAF
KMLB 030529Z 0306/0406 VRB03KT 6SM BR FEW003
     FM030800 06004KT 4SM BR SCT003
      TEMPO 0308/0310 2SM BR BKN002
     FM031000 06005KT 3SM BR BKN003
      TEMPO 0310/0314 1SM BR VV002
     FM031500 08008KT P6SM SCT005 SCT020
     FM031700 11011KT P6SM SCT030
     FM040000 12006KT P6SM FEW030 SCT250=



000
FTUS42 KMLB 030529
TAFMCO
TAF
KMCO 030529Z 0306/0406 00000KT 6SM BR SCT003
      TEMPO 0308/0310 1/2SM FG BKN002
     FM031000 00000KT 1SM BR BKN003
      TEMPO 0310/0313 1/2SM FG VV002
     FM031400 05004KT 5SM BR SCT005 BKN020
     FM031600 11010KT P6SM SCT035
     FM040000 11006KT P6SM FEW035 SCT250=



000
FTUS42 KMLB 030529
TAFDAB
TAF
KDAB 030529Z 0306/0406 08003KT 3/4SM BR BKN003
      TEMPO 0306/0308 1/4SM FG OVC002
     FM030800 00000KT 1/2SM FG OVC002
      TEMPO 0308/0312 1/4SM FG VV002
     FM031500 05004KT P6SM SCT005 BKN012
     FM031600 09007KT P6SM SCT020
     FM031700 09008KT P6SM SCT030
     FM040000 13003KT P6SM FEW025 SCT250=



000
FTUS42 KMLB 030437 AAB
TAFDAB
TAF AMD
KDAB 030437Z 0305/0324 08003KT 3/4SM BR BKN003
      TEMPO 0305/0308 1/4SM FG OVC002
     FM030800 00000KT 1/2SM FG OVC002
      TEMPO 0308/0312 1/4SM FG VV002
     FM031500 05004KT P6SM SCT005
     FM031700 09008KT P6SM SCT030=



000
FTUS42 KMLB 030437 AAB
TAFDAB
TAF AMD
KDAB 030437Z 0305/0324 08003KT 3/4SM BR BKN003
      TEMPO 0305/0308 1/4SM FG OVC002
     FM030800 00000KT 1/2SM FG OVC002
      TEMPO 0308/0312 1/4SM FG VV002
     FM031500 05004KT P6SM SCT005
     FM031700 09008KT P6SM SCT030=



000
FTUS42 KMLB 030307 AAA
TAFDAB
TAF AMD
KDAB 030307Z 0303/0324 02003KT 5SM BR SCT003 SCT015
      TEMPO 0303/0305 1SM BR VV003
     FM030500 00000KT 1SM BR VV002
     FM031500 05004KT P6SM SCT005
     FM031700 09008KT P6SM SCT030=



000
FTUS42 KMLB 030307 AAA
TAFDAB
TAF AMD
KDAB 030307Z 0303/0324 02003KT 5SM BR SCT003 SCT015
      TEMPO 0303/0305 1SM BR VV003
     FM030500 00000KT 1SM BR VV002
     FM031500 05004KT P6SM SCT005
     FM031700 09008KT P6SM SCT030=



000
FTUS42 KMLB 030259 AAA
TAFMCO
TAF AMD
KMCO 030259Z 0303/0324 VRB03KT P6SM SKC
     FM030500 00000KT 6SM BR SCT003
      TEMPO 0307/0309 1/2SM FG VV001
     FM030900 00000KT 1/4SM FG VV001
     FM031400 05004KT 5SM BR SCT005 BKN020
     FM031600 11010KT P6SM SCT035=



000
FTUS42 KMLB 030259 AAA
TAFMCO
TAF AMD
KMCO 030259Z 0303/0324 VRB03KT P6SM SKC
     FM030500 00000KT 6SM BR SCT003
      TEMPO 0307/0309 1/2SM FG VV001
     FM030900 00000KT 1/4SM FG VV001
     FM031400 05004KT 5SM BR SCT005 BKN020
     FM031600 11010KT P6SM SCT035=



000
FTUS42 KMLB 022332
TAFVRB
TAF
KVRB 022332Z 0300/0324 04007KT P6SM SCT003
      TEMPO 0300/0302 1SM BR BKN003
     FM030200 04005KT 3SM BR OVC003
      TEMPO 0310/0313 1/2SM FG VV002
     FM031400 08008KT P6SM SCT005 SCT020
     FM031700 10010KT P6SM SCT030=



000
FTUS42 KMLB 022332
TAFMLB
TAF
KMLB 022332Z 0300/0324 05008KT P6SM SKC
     FM030200 05004KT 4SM BR BKN004
     FM030500 02003KT 1SM BR BKN003
      TEMPO 0310/0314 1/2SM FG VV002
     FM031500 08008KT P6SM SCT005 SCT020
     FM031700 11011KT P6SM SCT030=



000
FTUS42 KMLB 022332
TAFSFB
TAF
KSFB 022332Z 0300/0324 09003KT P6SM SCT250
     FM030200 00000KT 2SM BR BKN003
      TEMPO 0304/0306 1/2SM FG VV001
     FM030600 00000KT 1/4SM FG VV001
     FM031400 05004KT 4SM BR SCT005 BKN020
     FM031600 12009KT P6SM SCT035=



000
FTUS42 KMLB 022332
TAFDAB
TAF
KDAB 022332Z 0300/0324 08005KT P6SM FEW040 SCT250
      TEMPO 0300/0301 1/2SM FG BKN002
     FM030300 02003KT 1/2SM FG VV002
     FM031500 05004KT P6SM SCT005
     FM031700 09008KT P6SM SCT030=



000
FTUS42 KMLB 022332
TAFMCO
TAF
KMCO 022332Z 0300/0324 07006KT P6SM FEW040 SCT250
     FM030300 00000KT 6SM BR SCT003
      TEMPO 0305/0307 1/2SM FG VV001
     FM030700 00000KT 1/4SM FG VV001
     FM031400 05004KT 5SM BR SCT005 BKN020
     FM031600 11010KT P6SM SCT035=



000
FTUS42 KMLB 022052 AAA
TAFMCO
TAF AMD
KMCO 022052Z 0221/0318 06009KT P6SM SCT035
      TEMPO 0221/0223 BKN035
     FM030100 06005KT P6SM SKC
     FM030500 00000KT P6SM FEW002
      TEMPO 0306/0308 2SM BR BKN002
     FM030800 00000KT 1SM BR OVC002
      TEMPO 0310/0314 1/4SM FG VV001
     FM031500 05004KT P6SM SCT005
     FM031700 10008KT P6SM SCT030=



000
FTUS42 KMLB 022015 AAA
TAFVRB
TAF AMD
KVRB 022015Z 0220/0318 05009KT P6SM FEW025
     FM030000 06005KT P6SM SKC
     FM030600 05004KT 4SM BR BKN004
      TEMPO 0310/0313 1SM BR BKN002
     FM031400 08008KT P6SM SCT005
     FM031700 10010KT P6SM SCT030=



000
FTUS42 KMLB 022015 AAA
TAFVRB
TAF AMD
KVRB 022015Z 0220/0318 05009KT P6SM FEW025
     FM030000 06005KT P6SM SKC
     FM030600 05004KT 4SM BR BKN004
      TEMPO 0310/0313 1SM BR BKN002
     FM031400 08008KT P6SM SCT005
     FM031700 10010KT P6SM SCT030=



000
FTUS42 KMLB 021732
TAFMLB
TAF
KMLB 021732Z 0218/0318 06006KT P6SM SCT025
     FM030200 05004KT 5SM BR BKN004
     FM030600 02003KT 1SM BR BKN003
      TEMPO 0310/0314 1/2SM FG VV002
     FM031500 08007KT P6SM SCT005
     FM031700 10009KT P6SM SCT030=



000
FTUS42 KMLB 021732
TAFVRB
TAF
KVRB 021732Z 0218/0318 07005KT P6SM FEW025
     FM030000 06005KT P6SM SKC
     FM030600 05004KT 4SM BR BKN004
      TEMPO 0310/0313 1SM BR BKN002
     FM031400 08008KT P6SM SCT005
     FM031700 10010KT P6SM SCT030=



000
FTUS42 KMLB 021732
TAFDAB
TAF
KDAB 021732Z 0218/0318 05007KT P6SM FEW005 SCT035 BKN060
     FM030000 02003KT 4SM BR BKN004
     FM030400 02003KT 1/2SM FG VV002
     FM031500 05004KT P6SM SCT005
     FM031700 09008KT P6SM SCT030=



000
FTUS42 KMLB 021732
TAFMCO
TAF
KMCO 021732Z 0218/0318 06007KT P6SM SCT030
     FM030000 00000KT P6SM SKC
     FM030500 00000KT P6SM FEW002
      TEMPO 0306/0308 2SM BR BKN002
     FM030800 00000KT 1SM BR OVC002
      TEMPO 0310/0314 1/4SM FG VV001
     FM031500 05004KT P6SM SCT005
     FM031700 10008KT P6SM SCT030=



000
FTUS42 KMLB 021732
TAFSFB
TAF
KSFB 021732Z 0218/0318 06004KT P6SM SCT030
     FM030000 00000KT P6SM SKC
     FM030400 00000KT 5SM BR FEW002
      TEMPO 0304/0306 2SM BR BKN002
     FM030600 00000KT 1SM BR OVC002
      TEMPO 0310/0314 1/4SM FG VV001
     FM031500 05004KT P6SM SCT005
     FM031700 11008KT P6SM SCT030=



000
FTUS42 KMLB 021732
TAFMLB
TAF
KMLB 021732Z 0218/0318 06006KT P6SM SCT025
     FM030200 05004KT 5SM BR BKN004
     FM030600 02003KT 1SM BR BKN003
      TEMPO 0310/0314 1/2SM FG VV002
     FM031500 08007KT P6SM SCT005
     FM031700 10009KT P6SM SCT030=



000
FTUS42 KMLB 021732
TAFDAB
TAF
KDAB 021732Z 0218/0318 05007KT P6SM FEW005 SCT035 BKN060
     FM030000 02003KT 4SM BR BKN004
     FM030400 02003KT 1/2SM FG VV002
     FM031500 05004KT P6SM SCT005
     FM031700 09008KT P6SM SCT030=



000
FTUS42 KMLB 021732
TAFVRB
TAF
KVRB 021732Z 0218/0318 07005KT P6SM FEW025
     FM030000 06005KT P6SM SKC
     FM030600 05004KT 4SM BR BKN004
      TEMPO 0310/0313 1SM BR BKN002
     FM031400 08008KT P6SM SCT005
     FM031700 10010KT P6SM SCT030=



000
FTUS42 KMLB 021732
TAFSFB
TAF
KSFB 021732Z 0218/0318 06004KT P6SM SCT030
     FM030000 00000KT P6SM SKC
     FM030400 00000KT 5SM BR FEW002
      TEMPO 0304/0306 2SM BR BKN002
     FM030600 00000KT 1SM BR OVC002
      TEMPO 0310/0314 1/4SM FG VV001
     FM031500 05004KT P6SM SCT005
     FM031700 11008KT P6SM SCT030=



000
FTUS42 KMLB 021732
TAFMCO
TAF
KMCO 021732Z 0218/0318 06007KT P6SM SCT030
     FM030000 00000KT P6SM SKC
     FM030500 00000KT P6SM FEW002
      TEMPO 0306/0308 2SM BR BKN002
     FM030800 00000KT 1SM BR OVC002
      TEMPO 0310/0314 1/4SM FG VV001
     FM031500 05004KT P6SM SCT005
     FM031700 10008KT P6SM SCT030=



000
FTUS42 KMLB 021625 CCA
TAFSFB
TAF COR
KSFB 021625Z 0216/0312 VRB03KT P6SM SCT008
     FM021700 06005KT P6SM SCT020
     FM022000 05006KT P6SM SCT035
     FM030000 06005KT P6SM SCT040 BKN250
     FM030500 02004KT 5SM BR SCT003
      TEMPO 0308/0312 1SM BR BKN002=



000
FTUS42 KMLB 021625 AAC
TAFSFB
TAF AMD
KSFB 021625Z 0216/0312 VRB03KT P6SM OVC005
     FM021700 06005KT P6SM SCT020
     FM022000 05006KT P6SM SCT035
     FM030000 06005KT P6SM SCT040 BKN250
     FM030500 02004KT 5SM BR SCT003
      TEMPO 0308/0312 1SM BR BKN002=



000
FTUS42 KMLB 021612 AAD
TAFDAB
TAF AMD
KDAB 021612Z 0216/0312 36004KT P6SM FEW008 SCT025
     FM021800 05007KT P6SM SCT030
     FM030000 02003KT P6SM FEW020 BKN250
     FM030600 02003KT 5SM BR BKN005
      TEMPO 0308/0312 2SM BR OVC004=



000
FTUS42 KMLB 021604 AAC
TAFMLB
TAF AMD
KMLB 021604Z 0216/0312 VRB03KT P6SM SCT012
      TEMPO 0216/0217 BKN012
     FM021700 06008KT P6SM SCT025
     FM030000 06006KT P6SM SCT030 BKN250
     FM030600 05004KT 5SM BR OVC006=



000
FTUS42 KMLB 021548 AAB
TAFSFB
TAF AMD
KSFB 021548Z 0216/0312 VRB03KT P6SM OVC005
     FM021600 06005KT P6SM BKN015
      TEMPO 0216/0217 OVC008
     FM021800 05006KT P6SM SCT035
     FM030000 06005KT P6SM SCT040 BKN250
     FM030500 02004KT 5SM BR SCT003
      TEMPO 0308/0312 1SM BR BKN002=



000
FTUS42 KMLB 021548 AAB
TAFSFB
TAF AMD
KSFB 021548Z 0216/0312 VRB03KT P6SM OVC005
     FM021600 06005KT P6SM BKN015
      TEMPO 0216/0217 OVC008
     FM021800 05006KT P6SM SCT035
     FM030000 06005KT P6SM SCT040 BKN250
     FM030500 02004KT 5SM BR SCT003
      TEMPO 0308/0312 1SM BR BKN002=



000
FTUS42 KMLB 021520 AAB
TAFVRB
TAF AMD
KVRB 021520Z 0215/0312 04006KT P6SM SCT012
      TEMPO 0215/0216 BKN015
     FM021600 05009KT P6SM SCT025
     FM030000 06005KT P6SM FEW025 BKN250
     FM030600 05004KT 5SM BR BKN006=



000
FTUS42 KMLB 021519 AAC
TAFMLB
TAF AMD
KMLB 021519Z 0215/0312 03003KT 3SM BR OVC002
      TEMPO 0215/0216 6SM BR BKN007
     FM021600 05006KT P6SM BKN015
     FM021700 06008KT P6SM SCT025
     FM030000 06006KT P6SM SCT030 BKN250
     FM030600 05004KT 5SM BR OVC006=



000
FTUS42 KMLB 021515 AAC
TAFDAB
TAF AMD
KDAB 021515Z 0215/0312 36004KT P6SM OVC007
     FM021600 02005KT P6SM BKN015
     FM021800 04006KT P6SM BKN025
     FM022000 05007KT P6SM SCT030 BKN250
     FM030000 02003KT P6SM FEW020 BKN250
     FM030600 02003KT 5SM BR BKN005
      TEMPO 0308/0312 2SM BR OVC004=



000
FTUS42 KMLB 021512 AAA
TAFSFB
TAF AMD
KSFB 021512Z 0215/0312 VRB03KT 1/2SM FG OVC002
      TEMPO 0215/0216 4SM BR OVC006
     FM021600 05006KT P6SM BKN015
     FM021800 05006KT P6SM SCT035
     FM030000 06005KT P6SM SCT040 BKN250
     FM030500 02004KT 5SM BR SCT003
      TEMPO 0308/0312 1SM BR BKN002=



000
FTUS42 KMLB 021512 AAA
TAFSFB
TAF AMD
KSFB 021512Z 0215/0312 VRB03KT 1/2SM FG OVC002
      TEMPO 0215/0216 4SM BR OVC006
     FM021600 05006KT P6SM BKN015
     FM021800 05006KT P6SM SCT035
     FM030000 06005KT P6SM SCT040 BKN250
     FM030500 02004KT 5SM BR SCT003
      TEMPO 0308/0312 1SM BR BKN002=



000
FTUS42 KMLB 021510 AAC
TAFMCO
TAF AMD
KMCO 021510Z 0215/0312 05004KT P6SM OVC004
      TEMPO 0215/0216 6SM BR HZ SCT004 BKN015
     FM021630 06006KT P6SM SCT015 BKN025
     FM030000 06007KT P6SM SCT040 BKN250
     FM030500 02004KT 5SM BR SCT003
      TEMPO 0308/0312 1SM BR BKN002=



000
FTUS42 KMLB 021440 AAB
TAFMCO
TAF AMD
KMCO 021440Z 0215/0312 04004KT 3SM BR OVC002
      TEMPO 0215/0216 2SM BR BKN004
     FM021600 05006KT P6SM SCT015
      TEMPO 0216/0217 4SM BR HZ BKN008
     FM021800 06006KT P6SM SCT035
     FM030000 06007KT P6SM SCT040 BKN250
     FM030500 02004KT 5SM BR SCT003
      TEMPO 0308/0312 1SM BR BKN002=



000
FTUS42 KMLB 021335 AAB
TAFDAB
TAF AMD
KDAB 021335Z 0214/0312 01004KT 1/4SM FG VV002
      TEMPO 0214/0215 1SM BR BKN003
     FM021500 01006KT 3SM BR BKN015
      TEMPO 0215/0216 6SM BR HZ BKN008
     FM021600 02005KT P6SM BKN015
     FM021800 04006KT P6SM BKN025
     FM022000 05007KT P6SM SCT030 BKN250
     FM030000 02003KT P6SM FEW020 BKN250
     FM030600 02003KT 5SM BR BKN005
      TEMPO 0308/0312 2SM BR OVC004=



000
FTUS42 KMLB 021335 AAB
TAFDAB
TAF AMD
KDAB 021335Z 0214/0312 01004KT 1/4SM FG VV002
      TEMPO 0214/0215 1SM BR BKN003
     FM021500 01006KT 3SM BR BKN015
      TEMPO 0215/0216 6SM BR HZ BKN008
     FM021600 02005KT P6SM BKN015
     FM021800 04006KT P6SM BKN025
     FM022000 05007KT P6SM SCT030 BKN250
     FM030000 02003KT P6SM FEW020 BKN250
     FM030600 02003KT 5SM BR BKN005
      TEMPO 0308/0312 2SM BR OVC004=



000
FTUS42 KMLB 021332 AAB
TAFMLB
TAF AMD
KMLB 021332Z 0214/0312 36005KT 1/4SM FG VV002
      TEMPO 0214/0215 1SM BR BKN003
     FM021500 01006KT 3SM BR BKN015
      TEMPO 0215/0216 6SM BR HZ BKN008
     FM021600 06008KT P6SM SCT025
     FM030000 06006KT P6SM SCT030 BKN250
     FM030600 05004KT 5SM BR OVC006=



000
FTUS42 KMLB 021223 AAA
TAFDAB
TAF AMD
KDAB 021223Z 0212/0312 35004KT 3/4SM BR OVC002
      TEMPO 0214/0215 1SM BR BKN004
     FM021500 02005KT P6SM BKN015
     FM021800 04006KT P6SM BKN025
     FM022000 05007KT P6SM SCT030 BKN250
     FM030000 02003KT P6SM FEW020 BKN250
     FM030600 02003KT 5SM BR BKN005
      TEMPO 0308/0312 2SM BR OVC004=



000
FTUS42 KMLB 021222 AAA
TAFMCO
TAF AMD
KMCO 021222Z 0212/0312 01005KT 1/4SM FG OVC002
      TEMPO 0214/0215 1SM BR BKN004
     FM021500 05006KT P6SM SCT015
      TEMPO 0215/0216 4SM BR HZ BKN008
     FM021800 06006KT P6SM SCT035
     FM030000 06007KT P6SM SCT040 BKN250
     FM030500 02004KT 5SM BR SCT003
      TEMPO 0308/0312 1SM BR BKN002=



000
FTUS42 KMLB 021212 AAA
TAFVRB
TAF AMD
KVRB 021212Z 0212/0312 01004KT 1/4SM FG VV002
     FM021400 04005KT P6SM BKN015
      TEMPO 0214/0215 1SM BR BKN003
     FM021600 05009KT P6SM SCT025
     FM030000 06005KT P6SM FEW025 BKN250
     FM030600 05004KT 5SM BR BKN006=



000
FTUS42 KMLB 021212 AAA
TAFVRB
TAF AMD
KVRB 021212Z 0212/0312 01004KT 1/4SM FG VV002
     FM021400 04005KT P6SM BKN015
      TEMPO 0214/0215 1SM BR BKN003
     FM021600 05009KT P6SM SCT025
     FM030000 06005KT P6SM FEW025 BKN250
     FM030600 05004KT 5SM BR BKN006=



000
FTUS42 KMLB 021135
TAFMLB
TAF
KMLB 021135Z 0212/0312 35003KT 1/2SM FG OVC002
      TEMPO 0212/0213 1/4SM FG VV002
     FM021400 02006KT 3SM BR BKN008
     FM021500 04006KT P6SM BKN015
     FM021600 06008KT P6SM SCT025
     FM030000 06006KT P6SM SCT030 BKN250
     FM030600 05004KT 5SM BR OVC006=



000
FTUS42 KMLB 021135
TAFVRB
TAF
KVRB 021135Z 0212/0312 36003KT 3SM BR SCT002 BKN020
      TEMPO 0212/0213 1SM BR BKN002
     FM021400 04005KT P6SM BKN015
     FM021600 05009KT P6SM SCT025
     FM030000 06005KT P6SM FEW025 BKN250
     FM030600 05004KT 5SM BR BKN006=



000
FTUS42 KMLB 021135
TAFSFB
TAF
KSFB 021135Z 0212/0312 02003KT 1/4SM FG VV002
     FM021400 03005KT 4SM BR BKN008
     FM021500 05006KT P6SM SCT015
     FM021800 05006KT P6SM SCT035
     FM030000 06005KT P6SM SCT040 BKN250
     FM030500 02004KT 5SM BR SCT003
      TEMPO 0308/0312 1SM BR BKN002=



000
FTUS42 KMLB 021135
TAFMCO
TAF
KMCO 021135Z 0212/0312 36005KT 1/2SM FG OVC002
     FM021400 03005KT 4SM BR BKN008
     FM021500 05006KT P6SM SCT015
     FM021800 06006KT P6SM SCT035
     FM030000 06007KT P6SM SCT040 BKN250
     FM030500 02004KT 5SM BR SCT003
      TEMPO 0308/0312 1SM BR BKN002=



000
FTUS42 KMLB 021135
TAFDAB
TAF
KDAB 021135Z 0212/0312 36003KT 3/4SM BR OVC003
      TEMPO 0212/0213 1/2SM FG VV003
     FM021400 36005KT 3SM BR BKN008
     FM021500 02005KT P6SM BKN015
     FM021800 04006KT P6SM BKN025
     FM022000 05007KT P6SM SCT030 BKN250
     FM030000 02003KT P6SM FEW020 BKN250
     FM030600 02003KT 5SM BR BKN005
      TEMPO 0308/0312 2SM BR OVC004=



000
FTUS42 KMLB 021135
TAFVRB
TAF
KVRB 021135Z 0212/0312 36003KT 3SM BR SCT002 BKN020
      TEMPO 0212/0213 1SM BR BKN002
     FM021400 04005KT P6SM BKN015
     FM021600 05009KT P6SM SCT025
     FM030000 06005KT P6SM FEW025 BKN250
     FM030600 05004KT 5SM BR BKN006=



000
FTUS42 KMLB 021135
TAFMLB
TAF
KMLB 021135Z 0212/0312 35003KT 1/2SM FG OVC002
      TEMPO 0212/0213 1/4SM FG VV002
     FM021400 02006KT 3SM BR BKN008
     FM021500 04006KT P6SM BKN015
     FM021600 06008KT P6SM SCT025
     FM030000 06006KT P6SM SCT030 BKN250
     FM030600 05004KT 5SM BR OVC006=



000
FTUS42 KMLB 021135
TAFMCO
TAF
KMCO 021135Z 0212/0312 36005KT 1/2SM FG OVC002
     FM021400 03005KT 4SM BR BKN008
     FM021500 05006KT P6SM SCT015
     FM021800 06006KT P6SM SCT035
     FM030000 06007KT P6SM SCT040 BKN250
     FM030500 02004KT 5SM BR SCT003
      TEMPO 0308/0312 1SM BR BKN002=



000
FTUS42 KMLB 021135
TAFSFB
TAF
KSFB 021135Z 0212/0312 02003KT 1/4SM FG VV002
     FM021400 03005KT 4SM BR BKN008
     FM021500 05006KT P6SM SCT015
     FM021800 05006KT P6SM SCT035
     FM030000 06005KT P6SM SCT040 BKN250
     FM030500 02004KT 5SM BR SCT003
      TEMPO 0308/0312 1SM BR BKN002=



000
FTUS42 KMLB 021135
TAFDAB
TAF
KDAB 021135Z 0212/0312 36003KT 3/4SM BR OVC003
      TEMPO 0212/0213 1/2SM FG VV003
     FM021400 36005KT 3SM BR BKN008
     FM021500 02005KT P6SM BKN015
     FM021800 04006KT P6SM BKN025
     FM022000 05007KT P6SM SCT030 BKN250
     FM030000 02003KT P6SM FEW020 BKN250
     FM030600 02003KT 5SM BR BKN005
      TEMPO 0308/0312 2SM BR OVC004=



000
FTUS42 KMLB 020914 AAA
TAFMCO
TAF AMD
KMCO 020914Z 0209/0306 02004KT 1/2SM FG OVC001
      TEMPO 0209/0212 1/4SM FG VV001
     FM021200 02004KT 1/2SM FG OVC002
      TEMPO 0213/0214 3/4SM BR BKN003
     FM021400 03005KT P6SM BKN010
     FM021800 06006KT P6SM SCT035
     FM030000 06007KT P6SM SCT040 BKN250=



000
FTUS42 KMLB 020914 AAA
TAFMCO
TAF AMD
KMCO 020914Z 0209/0306 02004KT 1/2SM FG OVC001
      TEMPO 0209/0212 1/4SM FG VV001
     FM021200 02004KT 1/2SM FG OVC002
      TEMPO 0213/0214 3/4SM BR BKN003
     FM021400 03005KT P6SM BKN010
     FM021800 06006KT P6SM SCT035
     FM030000 06007KT P6SM SCT040 BKN250=



000
FTUS42 KMLB 020538
TAFMCO
TAF
KMCO 020538Z 0206/0306 02004KT 3/4SM BR BKN002
      TEMPO 0206/0208 1/2SM FG VV002
     FM020800 02004KT 1/2SM FG OVC002
      TEMPO 0208/0212 1/4SM FG VV002
     FM021200 02004KT 1/2SM FG OVC002
      TEMPO 0213/0214 3/4SM BR BKN003
     FM021400 03005KT P6SM BKN010
     FM021800 06006KT P6SM SCT035
     FM030000 06007KT P6SM SCT040 BKN250=



000
FTUS42 KMLB 020538
TAFSFB
TAF
KSFB 020538Z 0206/0306 02004KT 3/4SM BR OVC003
      TEMPO 0206/0210 1/2SM FG VV002
     FM021000 02004KT 1/2SM FG OVC002
      TEMPO 0210/0213 1/4SM FG VV001
     FM021400 02005KT P6SM BKN010
     FM021800 05006KT P6SM SCT035
     FM030000 06005KT P6SM SCT040 BKN250=



000
FTUS42 KMLB 020538
TAFMLB
TAF
KMLB 020538Z 0206/0306 10003KT P6SM SCT250
      TEMPO 0207/0208 3SM BR FEW003
     FM020800 35004KT 2SM BR SCT002
      TEMPO 0208/0212 1SM BR BKN002
     FM021400 02006KT P6SM BKN015
     FM021800 06008KT P6SM SCT025
     FM030000 06006KT P6SM SCT030 BKN250=



000
FTUS42 KMLB 020538
TAFVRB
TAF
KVRB 020538Z 0206/0306 11006KT P6SM SCT250
     FM020900 07003KT 5SM BR BKN005
      TEMPO 0210/0213 1SM MIFG BKN002
     FM021400 04005KT P6SM BKN015
     FM021800 05009KT P6SM SCT025
     FM030000 06005KT P6SM FEW025 BKN250=



000
FTUS42 KMLB 020538
TAFDAB
TAF
KDAB 020538Z 0206/0306 01006KT 2SM BR OVC004
      TEMPO 0206/0209 1SM BR OVC002
     FM020900 36005KT 1SM BR OVC004
      TEMPO 0209/0213 1/2SM FG OVC002
     FM021400 36005KT P6SM BKN008
     FM021800 04006KT P6SM BKN025
     FM022000 05007KT P6SM SCT030 BKN250
     FM030000 02003KT P6SM FEW020 BKN250=



000
FTUS42 KMLB 020538
TAFSFB
TAF
KSFB 020538Z 0206/0306 02004KT 3/4SM BR OVC003
      TEMPO 0206/0210 1/2SM FG VV002
     FM021000 02004KT 1/2SM FG OVC002
      TEMPO 0210/0213 1/4SM FG VV001
     FM021400 02005KT P6SM BKN010
     FM021800 05006KT P6SM SCT035
     FM030000 06005KT P6SM SCT040 BKN250=



000
FTUS42 KMLB 020538
TAFMCO
TAF
KMCO 020538Z 0206/0306 02004KT 3/4SM BR BKN002
      TEMPO 0206/0208 1/2SM FG VV002
     FM020800 02004KT 1/2SM FG OVC002
      TEMPO 0208/0212 1/4SM FG VV002
     FM021200 02004KT 1/2SM FG OVC002
      TEMPO 0213/0214 3/4SM BR BKN003
     FM021400 03005KT P6SM BKN010
     FM021800 06006KT P6SM SCT035
     FM030000 06007KT P6SM SCT040 BKN250=



000
FTUS42 KMLB 020538
TAFDAB
TAF
KDAB 020538Z 0206/0306 01006KT 2SM BR OVC004
      TEMPO 0206/0209 1SM BR OVC002
     FM020900 36005KT 1SM BR OVC004
      TEMPO 0209/0213 1/2SM FG OVC002
     FM021400 36005KT P6SM BKN008
     FM021800 04006KT P6SM BKN025
     FM022000 05007KT P6SM SCT030 BKN250
     FM030000 02003KT P6SM FEW020 BKN250=



000
FTUS42 KMLB 020538
TAFMLB
TAF
KMLB 020538Z 0206/0306 10003KT P6SM SCT250
      TEMPO 0207/0208 3SM BR FEW003
     FM020800 35004KT 2SM BR SCT002
      TEMPO 0208/0212 1SM BR BKN002
     FM021400 02006KT P6SM BKN015
     FM021800 06008KT P6SM SCT025
     FM030000 06006KT P6SM SCT030 BKN250=



000
FTUS42 KMLB 020538
TAFVRB
TAF
KVRB 020538Z 0206/0306 11006KT P6SM SCT250
     FM020900 07003KT 5SM BR BKN005
      TEMPO 0210/0213 1SM MIFG BKN002
     FM021400 04005KT P6SM BKN015
     FM021800 05009KT P6SM SCT025
     FM030000 06005KT P6SM FEW025 BKN250=



000
FTUS42 KMLB 020313 AAB
TAFSFB
TAF AMD
KSFB 020313Z 0203/0224 03006KT 3/4SM BR OVC002
      TEMPO 0203/0207 1/2SM FG VV001
     FM021400 02003KT P6SM BKN010
     FM021800 06005KT P6SM SCT035=



000
FTUS42 KMLB 020313 AAB
TAFSFB
TAF AMD
KSFB 020313Z 0203/0224 03006KT 3/4SM BR OVC002
      TEMPO 0203/0207 1/2SM FG VV001
     FM021400 02003KT P6SM BKN010
     FM021800 06005KT P6SM SCT035=



000
FTUS42 KMLB 020308 AAA
TAFMCO
TAF AMD
KMCO 020308Z 0203/0224 05004KT P6SM FEW004 FEW060 BKN250
     FM020500 02004KT 3SM BR OVC003
      TEMPO 0209/0213 1SM BR OVC002
     FM021400 02005KT P6SM BKN010
     FM021800 04006KT P6SM SCT035=



000
FTUS42 KMLB 020308 AAA
TAFMCO
TAF AMD
KMCO 020308Z 0203/0224 05004KT P6SM FEW004 FEW060 BKN250
     FM020500 02004KT 3SM BR OVC003
      TEMPO 0209/0213 1SM BR OVC002
     FM021400 02005KT P6SM BKN010
     FM021800 04006KT P6SM SCT035=



000
FTUS42 KMLB 020214 AAA
TAFSFB
TAF AMD
KSFB 020214Z 0202/0224 05004KT 2SM BR OVC003
      TEMPO 0209/0213 1/2SM FG VV001
     FM021400 02003KT P6SM BKN010
     FM021800 06005KT P6SM SCT035=



000
FTUS42 KMLB 012343
TAFSFB
TAF
KSFB 012343Z 0200/0224 10006KT P6SM FEW019 BKN250
     FM020600 01004KT 3SM BR OVC003
      TEMPO 0209/0213 1/2SM FG VV001
     FM021400 02003KT P6SM BKN010
     FM021800 06005KT P6SM SCT035=



000
FTUS42 KMLB 012343
TAFDAB
TAF
KDAB 012343Z 0200/0224 03006KT 1 1/2SM BR OVC003
     FM020300 36005KT 1SM BR OVC004
      TEMPO 0210/0213 1/2SM FG OVC003
     FM021400 36005KT P6SM BKN008
     FM021800 05007KT P6SM BKN025=



000
FTUS42 KMLB 012343
TAFMCO
TAF
KMCO 012343Z 0200/0224 09004KT P6SM FEW030 FEW060 BKN250
     FM020600 02004KT 3SM BR OVC003
      TEMPO 0209/0213 1SM BR OVC002
     FM021400 02005KT P6SM BKN010
     FM021800 04006KT P6SM SCT035=



000
FTUS42 KMLB 012343
TAFVRB
TAF
KVRB 012343Z 0200/0224 11006KT P6SM SCT250
     FM020900 07003KT 5SM BR BKN005
      TEMPO 0210/0213 1SM MIFG BKN002
     FM021400 04005KT P6SM BKN015
     FM021800 05009KT P6SM SCT025=



000
FTUS42 KMLB 012343
TAFMLB
TAF
KMLB 012343Z 0200/0224 10005KT P6SM SCT250
     FM020900 35004KT 3SM BR SCT002
      TEMPO 0210/0213 1SM BR BKN002
     FM021400 02006KT P6SM BKN015
     FM021800 06008KT P6SM SCT025=



000
FTUS42 KMLB 012343
TAFSFB
TAF
KSFB 012343Z 0200/0224 10006KT P6SM FEW019 BKN250
     FM020600 01004KT 3SM BR OVC003
      TEMPO 0209/0213 1/2SM FG VV001
     FM021400 02003KT P6SM BKN010
     FM021800 06005KT P6SM SCT035=



000
FTUS42 KMLB 012343
TAFVRB
TAF
KVRB 012343Z 0200/0224 11006KT P6SM SCT250
     FM020900 07003KT 5SM BR BKN005
      TEMPO 0210/0213 1SM MIFG BKN002
     FM021400 04005KT P6SM BKN015
     FM021800 05009KT P6SM SCT025=



000
FTUS42 KMLB 012343
TAFDAB
TAF
KDAB 012343Z 0200/0224 03006KT 1 1/2SM BR OVC003
     FM020300 36005KT 1SM BR OVC004
      TEMPO 0210/0213 1/2SM FG OVC003
     FM021400 36005KT P6SM BKN008
     FM021800 05007KT P6SM BKN025=



000
FTUS42 KMLB 012343
TAFMCO
TAF
KMCO 012343Z 0200/0224 09004KT P6SM FEW030 FEW060 BKN250
     FM020600 02004KT 3SM BR OVC003
      TEMPO 0209/0213 1SM BR OVC002
     FM021400 02005KT P6SM BKN010
     FM021800 04006KT P6SM SCT035=



000
FTUS42 KMLB 012343
TAFMLB
TAF
KMLB 012343Z 0200/0224 10005KT P6SM SCT250
     FM020900 35004KT 3SM BR SCT002
      TEMPO 0210/0213 1SM BR BKN002
     FM021400 02006KT P6SM BKN015
     FM021800 06008KT P6SM SCT025=



000
FTUS42 KMLB 012056 AAB
TAFMCO
TAF AMD
KMCO 012056Z 0121/0218 11006KT P6SM VCSH FEW015 SCT030 BKN060
     FM020000 10004KT P6SM SCT030 BKN100
     FM020600 00000KT 3SM BR OVC003
      TEMPO 0209/0213 1SM BR OVC002
     FM021400 VRB03KT P6SM BKN010
     FM021600 VRB04KT P6SM BKN025=



000
FTUS42 KMLB 012056 AAB
TAFMCO
TAF AMD
KMCO 012056Z 0121/0218 11006KT P6SM VCSH FEW015 SCT030 BKN060
     FM020000 10004KT P6SM SCT030 BKN100
     FM020600 00000KT 3SM BR OVC003
      TEMPO 0209/0213 1SM BR OVC002
     FM021400 VRB03KT P6SM BKN010
     FM021600 VRB04KT P6SM BKN025=



000
FTUS42 KMLB 011917 AAA
TAFDAB
TAF AMD
KDAB 011917Z 0119/0218 04008KT P6SM VCSH SCT008 BKN020 OVC030
      TEMPO 0119/0121 BKN008
     FM020000 09003KT P6SM SCT020 BKN080
     FM020300 00000KT 5SM BR BKN015
      TEMPO 0210/0213 1SM BR OVC003
     FM021400 00000KT P6SM BKN012
     FM021600 06005KT P6SM BKN025=



000
FTUS42 KMLB 011917 AAA
TAFDAB
TAF AMD
KDAB 011917Z 0119/0218 04008KT P6SM VCSH SCT008 BKN020 OVC030
      TEMPO 0119/0121 BKN008
     FM020000 09003KT P6SM SCT020 BKN080
     FM020300 00000KT 5SM BR BKN015
      TEMPO 0210/0213 1SM BR OVC003
     FM021400 00000KT P6SM BKN012
     FM021600 06005KT P6SM BKN025=



000
FTUS42 KMLB 011915 AAB
TAFMLB
TAF AMD
KMLB 011915Z 0119/0218 14010KT P6SM VCSH FEW015 SCT025 BKN100
     FM020000 11006KT P6SM SCT020 SCT050
     FM020900 VRB02KT 3SM BR SCT002
      TEMPO 0210/0213 1SM BR BKN002
     FM021400 VRB03KT P6SM BKN015
     FM021600 06008KT P6SM SCT025=



000
FTUS42 KMLB 011837 AAA
TAFMCO
TAF AMD
KMCO 011837Z 0119/0218 10008KT P6SM VCSH SCT025 BKN040
      TEMPO 0119/0121 2SM +SHRA BKN015
     FM020000 10004KT P6SM SCT030 BKN100
     FM020600 00000KT 3SM BR OVC003
      TEMPO 0209/0213 1SM BR OVC002
     FM021400 VRB03KT P6SM BKN010
     FM021600 VRB04KT P6SM BKN025=



000
FTUS42 KMLB 011734
TAFSFB
TAF
KSFB 011734Z 0118/0218 10009KT P6SM VCSH SCT025 OVC050
     FM020000 10004KT P6SM SCT030 BKN100
     FM020600 00000KT 3SM BR OVC003
      TEMPO 0209/0213 1/2SM FG VV001
     FM021400 VRB03KT P6SM BKN010
     FM021600 VRB04KT P6SM BKN025=



000
FTUS42 KMLB 011734
TAFDAB
TAF
KDAB 011734Z 0118/0218 03005KT 3SM BR VCSH SCT014 BKN022 OVC030
     FM020000 09003KT P6SM SCT020 BKN080
     FM020300 00000KT 5SM BR BKN015
      TEMPO 0210/0213 1SM BR OVC003
     FM021400 00000KT P6SM BKN012
     FM021600 06005KT P6SM BKN025=



000
FTUS42 KMLB 011734
TAFMCO
TAF
KMCO 011734Z 0118/0218 10008KT P6SM VCSH SCT025 BKN040
     FM020000 10004KT P6SM SCT030 BKN100
     FM020600 00000KT 3SM BR OVC003
      TEMPO 0209/0213 1SM BR OVC002
     FM021400 VRB03KT P6SM BKN010
     FM021600 VRB04KT P6SM BKN025=



000
FTUS42 KMLB 011734
TAFSFB
TAF
KSFB 011734Z 0118/0218 10009KT P6SM VCSH SCT025 OVC050
     FM020000 10004KT P6SM SCT030 BKN100
     FM020600 00000KT 3SM BR OVC003
      TEMPO 0209/0213 1/2SM FG VV001
     FM021400 VRB03KT P6SM BKN010
     FM021600 VRB04KT P6SM BKN025=



000
FTUS42 KMLB 011734
TAFVRB
TAF
KVRB 011734Z 0118/0218 13013KT P6SM SCT020
     FM020000 11006KT P6SM SCT020 BKN080
     FM020900 07003KT 5SM BR BKN005
      TEMPO 0210/0213 1SM MIFG BKN002
     FM021400 VRB03KT P6SM BKN015
     FM021600 06008KT P6SM SCT025=



000
FTUS42 KMLB 011734
TAFMLB
TAF
KMLB 011734Z 0118/0218 15013KT P6SM VCSH BKN015 OVC030
      TEMPO 0118/0121 3SM SHRA OVC012
     FM020000 11006KT P6SM SCT020 BKN050
     FM020900 VRB02KT 3SM BR SCT002
      TEMPO 0210/0213 1SM BR BKN002
     FM021400 VRB03KT P6SM BKN015
     FM021600 06008KT P6SM SCT025=



000
FTUS42 KMLB 011734
TAFMCO
TAF
KMCO 011734Z 0118/0218 10008KT P6SM VCSH SCT025 BKN040
     FM020000 10004KT P6SM SCT030 BKN100
     FM020600 00000KT 3SM BR OVC003
      TEMPO 0209/0213 1SM BR OVC002
     FM021400 VRB03KT P6SM BKN010
     FM021600 VRB04KT P6SM BKN025=



000
FTUS42 KMLB 011734
TAFDAB
TAF
KDAB 011734Z 0118/0218 03005KT 3SM BR VCSH SCT014 BKN022 OVC030
     FM020000 09003KT P6SM SCT020 BKN080
     FM020300 00000KT 5SM BR BKN015
      TEMPO 0210/0213 1SM BR OVC003
     FM021400 00000KT P6SM BKN012
     FM021600 06005KT P6SM BKN025=



000
FTUS42 KMLB 011734
TAFVRB
TAF
KVRB 011734Z 0118/0218 13013KT P6SM SCT020
     FM020000 11006KT P6SM SCT020 BKN080
     FM020900 07003KT 5SM BR BKN005
      TEMPO 0210/0213 1SM MIFG BKN002
     FM021400 VRB03KT P6SM BKN015
     FM021600 06008KT P6SM SCT025=



000
FTUS42 KMLB 011734
TAFMLB
TAF
KMLB 011734Z 0118/0218 15013KT P6SM VCSH BKN015 OVC030
      TEMPO 0118/0121 3SM SHRA OVC012
     FM020000 11006KT P6SM SCT020 BKN050
     FM020900 VRB02KT 3SM BR SCT002
      TEMPO 0210/0213 1SM BR BKN002
     FM021400 VRB03KT P6SM BKN015
     FM021600 06008KT P6SM SCT025=



000
FTUS42 KMLB 011607 AAB
TAFMLB
TAF AMD
KMLB 011607Z 0116/0212 11011KT P6SM VCSH BKN025
      TEMPO 0117/0119 3SM SHRA BKN015
     FM020000 10006KT P6SM SCT020 BKN080
     FM020900 VRB03KT P6SM SCT003 BKN008=



000
FTUS42 KMLB 011603 AAA
TAFDAB
TAF AMD
KDAB 011603Z 0116/0212 04006KT 5SM BR HZ SCT012 BKN020
      TEMPO 0116/0118 -DZ
     FM011800 11009KT P6SM VCSH BKN035
     FM020000 09003KT P6SM SCT020 BKN080
     FM020300 VRB03KT 5SM BR BKN015=



000
FTUS42 KMLB 011559 AAA
TAFSFB
TAF AMD
KSFB 011559Z 0116/0212 08010KT P6SM BKN012 OVC020
     FM011800 12010KT P6SM BKN040
      TEMPO 0118/0121 3SM SHRA BKN025
     FM020000 10006KT P6SM SCT030 SCT060 BKN100
     FM020600 01003KT 3SM BR OVC004
      TEMPO 0208/0212 1/2SM FG=



000
FTUS42 KMLB 011559 AAA
TAFSFB
TAF AMD
KSFB 011559Z 0116/0212 08010KT P6SM BKN012 OVC020
     FM011800 12010KT P6SM BKN040
      TEMPO 0118/0121 3SM SHRA BKN025
     FM020000 10006KT P6SM SCT030 SCT060 BKN100
     FM020600 01003KT 3SM BR OVC004
      TEMPO 0208/0212 1/2SM FG=



000
FTUS42 KMLB 011555 AAA
TAFMCO
TAF AMD
KMCO 011555Z 0116/0212 08005KT P6SM BKN015 BKN035
     FM011800 12010KT P6SM BKN040
      TEMPO 0119/0122 3SM SHRA BKN025
     FM020000 10006KT P6SM SCT030 SCT060 BKN100
     FM020600 03003KT 3SM BR OVC004
      TEMPO 0208/0212 1SM BR=



000
FTUS42 KMLB 011135
TAFMCO
TAF
KMCO 011135Z 0112/0212 08005KT P6SM SCT025 BKN035
     FM011400 12010KT P6SM SCT015 BKN040
     FM011800 12010KT P6SM BKN040
      TEMPO 0118/0122 3SM SHRA BKN025
     FM020000 10006KT P6SM SCT030 SCT060 BKN100
     FM020600 03003KT 3SM BR OVC004
      TEMPO 0208/0212 1SM BR=



000
FTUS42 KMLB 011135
TAFSFB
TAF
KSFB 011135Z 0112/0212 03005KT P6SM SCT020 BKN035
     FM011400 12009KT P6SM SCT015 BKN040
     FM011800 12010KT P6SM BKN040
      TEMPO 0118/0122 3SM SHRA BKN025
     FM020000 10006KT P6SM SCT030 SCT060 BKN100
     FM020600 01003KT 3SM BR OVC004
      TEMPO 0208/0212 1/2SM FG=



000
FTUS42 KMLB 011135
TAFVRB
TAF
KVRB 011135Z 0112/0212 11011KT P6SM VCSH SCT020 BKN025 OVC040
      TEMPO 0112/0114 5SM SHRA BKN020
     FM011400 11010KT P6SM BKN025
     FM011800 11012KT P6SM BKN035
     FM020000 06003KT P6SM SCT020 BKN080
     FM020900 07003KT P6SM BKN010=



000
FTUS42 KMLB 011135
TAFDAB
TAF
KDAB 011135Z 0112/0212 04005KT 5SM BR SCT003 SCT020 BKN025
     FM011400 11008KT P6SM SCT006 BKN020
     FM011800 11008KT P6SM VCSH BKN035
     FM020000 09003KT P6SM SCT020 BKN080
     FM020300 VRB03KT 5SM BR BKN015=



000
FTUS42 KMLB 011135
TAFMLB
TAF
KMLB 011135Z 0112/0212 09008KT P6SM SCT020 OVC035
      TEMPO 0112/0114 5SM -SHRA BKN025
     FM011400 11011KT P6SM SCT020 BKN035
     FM011800 11012KT P6SM VCSH BKN035
     FM020000 10006KT P6SM SCT020 BKN080
     FM020900 VRB03KT P6SM SCT003 BKN008=



000
FTUS42 KMLB 011035 AAB
TAFMLB
TAF AMD
KMLB 011035Z 0111/0206 09008KT P6SM SCT020 OVC035
      TEMPO 0111/0114 5SM -SHRA BKN025
     FM011400 12010KT P6SM SCT020 BKN035
     FM011800 11012KT P6SM VCSH BKN035
     FM020000 06003KT P6SM SCT020 BKN080=



000
FTUS42 KMLB 011035 AAB
TAFMLB
TAF AMD
KMLB 011035Z 0111/0206 09008KT P6SM SCT020 OVC035
      TEMPO 0111/0114 5SM -SHRA BKN025
     FM011400 12010KT P6SM SCT020 BKN035
     FM011800 11012KT P6SM VCSH BKN035
     FM020000 06003KT P6SM SCT020 BKN080=



000
FTUS42 KMLB 011005 AAA
TAFDAB
TAF AMD
KDAB 011005Z 0110/0206 04005KT 5SM BR SCT003 BKN025
     FM011400 13006KT P6SM SCT006 BKN020
     FM011800 12008KT P6SM VCSH BKN035
     FM020000 06003KT P6SM SCT020 BKN080
     FM020300 VRB03KT 5SM BR BKN015=



000
FTUS42 KMLB 010946 AAA
TAFSFB
TAF AMD
KSFB 010946Z 0110/0206 10007KT P6SM SCT025 BKN035
      TEMPO 0111/0113 5SM BR BKN025 OVC035
     FM011400 12006KT P6SM SCT006 BKN020
     FM011800 13009KT P6SM BKN040
      TEMPO 0118/0122 3SM SHRA BKN025
     FM020000 10006KT P6SM SCT030 SCT060 BKN100=



000
FTUS42 KMLB 010912 AAA
TAFMCO
TAF AMD
KMCO 010912Z 0109/0206 03006KT P6SM SCT015 BKN025 OVC080
     FM011100 03005KT 5SM BR SCT005 BKN015
      TEMPO 0111/0113 BKN005 BKN015
     FM011400 12009KT P6SM SCT008 BKN020
     FM011800 12010KT P6SM BKN040
      TEMPO 0118/0122 3SM SHRA BKN025
     FM020000 10006KT P6SM SCT030 SCT060 BKN100=



000
FTUS42 KMLB 010912 AAA
TAFMCO
TAF AMD
KMCO 010912Z 0109/0206 03006KT P6SM SCT015 BKN025 OVC080
     FM011100 03005KT 5SM BR SCT005 BKN015
      TEMPO 0111/0113 BKN005 BKN015
     FM011400 12009KT P6SM SCT008 BKN020
     FM011800 12010KT P6SM BKN040
      TEMPO 0118/0122 3SM SHRA BKN025
     FM020000 10006KT P6SM SCT030 SCT060 BKN100=



000
FTUS42 KMLB 010538
TAFMCO
TAF
KMCO 010538Z 0106/0206 05007KT P6SM VCSH SCT025 BKN060
      TEMPO 0106/0109 SCT006 BKN025
     FM010900 06005KT 5SM BR OVC005
     FM011400 12009KT P6SM SCT008 BKN020
     FM011800 12010KT P6SM BKN040
      TEMPO 0118/0122 3SM SHRA BKN025
     FM020000 10006KT P6SM SCT030 SCT060 BKN100=



000
FTUS42 KMLB 010538
TAFVRB
TAF
KVRB 010538Z 0106/0206 08011KT P6SM VCSH BKN020 OVC100
     FM011000 09009KT P6SM SCT008 BKN015
     FM011800 11012KT P6SM BKN035 PROB30 0118/0121 5SM SHRA BKN025
     FM020000 06003KT P6SM SCT020 BKN080=



000
FTUS42 KMLB 010538
TAFMLB
TAF
KMLB 010538Z 0106/0206 09011KT P6SM SCT020 OVC030
     FM011000 10006KT 4SM BR BKN005
     FM011400 12010KT P6SM SCT012 BKN020
     FM011800 11012KT P6SM BKN035 PROB30 0118/0121 5SM SHRA BKN025
     FM020000 06003KT P6SM SCT020 BKN080=



000
FTUS42 KMLB 010538
TAFDAB
TAF
KDAB 010538Z 0106/0206 04006KT 4SM BR VCSH SCT020 OVC100
      TEMPO 0107/0109 BKN005 OVC010
     FM010900 04006KT 3SM BR OVC005
     FM011400 13006KT P6SM SCT006 BKN020
     FM011800 12008KT P6SM BKN035 PROB30 0118/0121 5SM SHRA BKN025
     FM020000 06003KT P6SM SCT020 BKN080
     FM020300 VRB03KT 5SM BR BKN015=



000
FTUS42 KMLB 010538
TAFMLB
TAF
KMLB 010538Z 0106/0206 09011KT P6SM SCT020 OVC030
     FM011000 10006KT 4SM BR BKN005
     FM011400 12010KT P6SM SCT012 BKN020
     FM011800 11012KT P6SM BKN035 PROB30 0118/0121 5SM SHRA BKN025
     FM020000 06003KT P6SM SCT020 BKN080=



000
FTUS42 KMLB 010538
TAFSFB
TAF
KSFB 010538Z 0106/0206 08004KT P6SM BKN020 OVC025
     FM010900 06005KT 5SM BR OVC005
     FM011400 12006KT P6SM SCT006 BKN015
     FM011800 13009KT P6SM BKN040
      TEMPO 0118/0122 3SM SHRA BKN025
     FM020000 10006KT P6SM SCT030 SCT060 BKN100=



000
FTUS42 KMLB 010538
TAFMCO
TAF
KMCO 010538Z 0106/0206 05007KT P6SM VCSH SCT025 BKN060
      TEMPO 0106/0109 SCT006 BKN025
     FM010900 06005KT 5SM BR OVC005
     FM011400 12009KT P6SM SCT008 BKN020
     FM011800 12010KT P6SM BKN040
      TEMPO 0118/0122 3SM SHRA BKN025
     FM020000 10006KT P6SM SCT030 SCT060 BKN100=



000
FTUS42 KMLB 010538
TAFDAB
TAF
KDAB 010538Z 0106/0206 04006KT 4SM BR VCSH SCT020 OVC100
      TEMPO 0107/0109 BKN005 OVC010
     FM010900 04006KT 3SM BR OVC005
     FM011400 13006KT P6SM SCT006 BKN020
     FM011800 12008KT P6SM BKN035 PROB30 0118/0121 5SM SHRA BKN025
     FM020000 06003KT P6SM SCT020 BKN080
     FM020300 VRB03KT 5SM BR BKN015=



000
FTUS42 KMLB 010538
TAFSFB
TAF
KSFB 010538Z 0106/0206 08004KT P6SM BKN020 OVC025
     FM010900 06005KT 5SM BR OVC005
     FM011400 12006KT P6SM SCT006 BKN015
     FM011800 13009KT P6SM BKN040
      TEMPO 0118/0122 3SM SHRA BKN025
     FM020000 10006KT P6SM SCT030 SCT060 BKN100=



000
FTUS42 KMLB 010538
TAFVRB
TAF
KVRB 010538Z 0106/0206 08011KT P6SM VCSH BKN020 OVC100
     FM011000 09009KT P6SM SCT008 BKN015
     FM011800 11012KT P6SM BKN035 PROB30 0118/0121 5SM SHRA BKN025
     FM020000 06003KT P6SM SCT020 BKN080=



000
FTUS42 KMLB 010356 AAA
TAFDAB
TAF AMD
KDAB 010356Z 0104/0124 05006KT 4SM BR VCSH SCT015 BKN030 OVC100
      TEMPO 0104/0107 BKN005 OVC010
     FM010800 04007KT 3SM BR OVC005
     FM011400 13006KT P6SM SCT006 BKN020
     FM011800 12008KT P6SM BKN035=



000
FTUS42 KMLB 010350 AAA
TAFVRB
TAF AMD
KVRB 010350Z 0104/0124 08012KT P6SM VCSH BKN020 OVC100
     FM011000 09009KT P6SM SCT008 BKN015
     FM011800 12012KT P6SM BKN035=



000
FTUS42 KMLB 010350 AAA
TAFVRB
TAF AMD
KVRB 010350Z 0104/0124 08012KT P6SM VCSH BKN020 OVC100
     FM011000 09009KT P6SM SCT008 BKN015
     FM011800 12012KT P6SM BKN035=



000
FTUS42 KMLB 010306 AAB
TAFMCO
TAF AMD
KMCO 010306Z 0103/0124 04008KT P6SM VCSH FEW025 OVC080
      TEMPO 0103/0106 SCT007 BKN025
     FM010600 06005KT 3SM BR OVC005
     FM011400 14009KT P6SM SCT008 BKN020
     FM011800 13008KT P6SM BKN040=



000
FTUS42 KMLB 282345 RRA
TAFMCO
TAF
KMCO 282345Z 0100/0124 09013KT 6SM -RA BR FEW025 SCT070 OVC110
      TEMPO 0100/0102 SCT015 BKN025
     FM010200 05009KT P6SM BKN007 OVC012
     FM010500 06005KT 3SM BR OVC003
     FM011400 14009KT P6SM SCT008 BKN020
     FM011800 13008KT P6SM BKN040=



000
FTUS42 KMLB 282345 RRA
TAFMLB
TAF
KMLB 282345Z 0100/0124 08012KT P6SM -RA SCT020 OVC060
     FM010200 08011KT 6SM BR VCSH SCT005 OVC012
     FM010800 10006KT 4SM BR BKN005
     FM011400 12010KT P6SM SCT012 BKN020=



000
FTUS42 KMLB 282345 RRA
TAFVRB
TAF
KVRB 282345Z 0100/0124 08015G22KT P6SM SCT020 OVC028
     FM010200 08010KT 6SM BR VCSH BKN007 OVC012
     FM010800 10006KT 4SM BR BKN005
     FM011000 12009KT P6SM SCT008 BKN025
     FM011800 12012KT P6SM BKN035=



000
FTUS42 KMLB 282345 RRA
TAFDAB
TAF
KDAB 282345Z 0100/0124 09008KT 5SM -RA BR SCT030 BKN080 OVC110
     FM010100 06010KT P6SM SCT007 BKN015 OVC030
      TEMPO 0106/0108 BKN005 OVC010
     FM010800 07004KT 3SM BR OVC005
     FM011400 13006KT P6SM SCT006 BKN020
     FM011800 12008KT P6SM BKN035=



000
FTUS42 KMLB 282345 RRA
TAFDAB
TAF
KDAB 282345Z 0100/0124 09008KT 5SM -RA BR SCT030 BKN080 OVC110
     FM010100 06010KT P6SM SCT007 BKN015 OVC030
      TEMPO 0106/0108 BKN005 OVC010
     FM010800 07004KT 3SM BR OVC005
     FM011400 13006KT P6SM SCT006 BKN020
     FM011800 12008KT P6SM BKN035=



000
FTUS42 KMLB 282345 RRA
TAFSFB
TAF
KSFB 282345Z 0100/0124 11008KT P6SM -RA SCT030 BKN110
     FM010200 05007KT P6SM SCT005 OVC012
     FM010500 08004KT 3SM BR OVC003
     FM011400 13006KT P6SM SCT006 BKN015
     FM011800 13008KT P6SM BKN040=



000
FTUS42 KMLB 282345 RRA
TAFMCO
TAF
KMCO 282345Z 0100/0124 09013KT 6SM -RA BR FEW025 SCT070 OVC110
      TEMPO 0100/0102 SCT015 BKN025
     FM010200 05009KT P6SM BKN007 OVC012
     FM010500 06005KT 3SM BR OVC003
     FM011400 14009KT P6SM SCT008 BKN020
     FM011800 13008KT P6SM BKN040=



000
FTUS42 KMLB 282345 RRA
TAFMLB
TAF
KMLB 282345Z 0100/0124 08012KT P6SM -RA SCT020 OVC060
     FM010200 08011KT 6SM BR VCSH SCT005 OVC012
     FM010800 10006KT 4SM BR BKN005
     FM011400 12010KT P6SM SCT012 BKN020=



000
FTUS42 KMLB 282345 RRA
TAFVRB
TAF
KVRB 282345Z 0100/0124 08015G22KT P6SM SCT020 OVC028
     FM010200 08010KT 6SM BR VCSH BKN007 OVC012
     FM010800 10006KT 4SM BR BKN005
     FM011000 12009KT P6SM SCT008 BKN025
     FM011800 12012KT P6SM BKN035=



000
FTUS42 KMLB 282345 RRA
TAFSFB
TAF
KSFB 282345Z 0100/0124 11008KT P6SM -RA SCT030 BKN110
     FM010200 05007KT P6SM SCT005 OVC012
     FM010500 08004KT 3SM BR OVC003
     FM011400 13006KT P6SM SCT006 BKN015
     FM011800 13008KT P6SM BKN040=



    US Dept of Commerce
    National Oceanic and Atmospheric Administration
    National Weather Service
    1325 East West Highway
    Silver Spring, MD 20910
    Page Author: NWS Internet Services Team
Disclaimer
Information Quality
Credits
Glossary
Privacy Policy
Freedom of Information Act (FOIA)
About Us
Career Opportunities